Latest Weather Observations for Karratha

IDW60801

Issued at 3:33 am WST Tuesday 30 August 2016 (issued every 30 minutes, with the page automatically refreshed every 10 minutes)

About weather observations | Map of weather stations | Latest weather observations for WA | Other Formats
Station Details ID: 004083 Name: KARRATHA AERO Lat: -20.71 Lon: 116.77 Height: 5.3 m
Data from the previous 72 hours. | See also: Recent months at Karratha
Date/Time
WST
Temp
°C
App
Temp
°C
Dew
Point
°C
Rel
Hum
%
Delta-T
°C
Wind Press
QNH
hPa
Press
MSL
hPa
Rain since
9am
mm
Dir  Spd
km/h
Gust
km/h
Spd
kts
Gust
kts
30/03:30am 12.8 12.3 11.9 94 0.5 SSW 6 9 3 5 1012.1 1012.1 0.0
30/03:00am 13.7 13.3 12.3 91 0.8 SW 6 7 3 4 1012.1 1012.1 0.0
30/02:30am 14.4 14.0 12.4 88 1.1 SW 6 7 3 4 1012.3 1012.3 0.0
30/02:00am 16.3 16.2 14.0 86 1.3 W 7 9 4 5 1012.4 1012.4 0.0
30/01:30am 16.7 16.5 14.7 88 1.1 W 9 11 5 6 1012.4 1012.4 0.0
30/01:00am 17.0 16.0 14.6 86 1.4 W 13 13 7 7 1012.5 1012.5 0.0
30/12:30am 17.4 16.2 15.0 86 1.4 WSW 15 17 8 9 1012.7 1012.7 0.0
30/12:00am 17.9 15.9 15.0 83 1.7 WSW 19 24 10 13 1012.8 1012.8 0.0
 
Date/Time
WST
Temp
°C
App
Temp
°C
Dew
Point
°C
Rel
Hum
%
Delta-T
°C
Wind Press
QNH
hPa
Press
MSL
hPa
Rain since
9am
mm
Dir  Spd
km/h
Gust
km/h
Spd
kts
Gust
kts
29/11:30pm 18.4 16.3 15.3 82 1.8 WSW 20 24 11 13 1012.7 1012.7 0.0
29/11:00pm 18.9 16.9 15.6 81 1.9 WSW 20 28 11 15 1012.7 1012.7 0.0
29/10:30pm 18.8 16.9 15.7 82 1.8 WSW 20 28 11 15 1012.7 1012.7 0.0
29/10:00pm 19.2 16.8 15.5 79 2.2 WSW 22 26 12 14 1012.8 1012.8 0.0
29/09:30pm 19.9 17.6 15.7 77 2.5 W 22 30 12 16 1012.9 1012.9 0.0
29/09:00pm 20.2 17.6 15.8 76 2.6 W 24 30 13 16 1012.8 1012.8 0.0
29/08:30pm 20.6 17.1 15.6 73 3.0 W 28 35 15 19 1012.5 1012.5 0.0
29/08:00pm 20.7 16.7 15.3 71 3.2 W 30 39 16 21 1012.4 1012.4 0.0
29/07:30pm 20.8 16.4 15.1 70 3.4 W 32 39 17 21 1011.9 1011.9 0.0
29/07:00pm 21.1 16.6 15.0 68 3.6 W 32 39 17 21 1011.5 1011.5 0.0
29/06:30pm 21.2 16.9 14.4 65 4.0 W 30 37 16 20 1011.1 1011.1 0.0
29/06:00pm 21.5 16.7 13.9 62 4.4 W 32 39 17 21 1010.7 1010.7 0.0
29/05:30pm 22.0 16.8 13.4 58 5.0 W 33 41 18 22 1010.6 1010.6 0.0
29/05:00pm 22.6 17.5 13.1 55 5.5 W 32 39 17 21 1010.4 1010.4 0.0
29/04:30pm 23.4 18.3 13.0 52 6.0 W 32 39 17 21 1010.1 1010.1 0.0
29/04:00pm 24.1 19.6 11.4 45 7.1 WNW 26 39 14 21 1010.2 1010.2 0.0
29/03:30pm 25.0 20.7 11.9 44 7.5 WNW 26 35 14 19 1010.2 1010.2 0.0
29/03:00pm 24.7 19.7 10.9 42 7.7 WNW 28 35 15 19 1010.1 1010.1 0.0
29/02:30pm 25.4 20.2 10.1 38 8.5 NW 28 35 15 19 1010.2 1010.2 0.0
29/02:00pm 25.4 21.0 7.5 32 9.5 NW 20 26 11 14 1010.5 1010.5 0.0
29/01:30pm 25.6 21.7 7.2 31 9.7 WNW 17 24 9 13 1010.9 1010.9 0.0
29/01:00pm 25.8 20.9 4.9 26 10.6 WNW 20 28 11 15 1011.5 1011.5 0.0
29/12:30pm 24.9 20.5 4.6 27 10.2 W 17 24 9 13 1011.9 1011.9 0.0
29/12:00pm 25.3 22.3 3.9 25 10.6 SSW 9 19 5 10 1012.4 1012.4 0.0
29/11:30am 24.1 19.9 5.5 30 9.4 WSW 17 26 9 14 1012.7 1012.7 0.0
29/11:00am 23.9 19.2 5.3 30 9.4 W 19 30 10 16 1012.9 1012.9 0.0
29/10:30am 22.9 18.3 5.8 33 8.6 WSW 19 35 10 19 1013.3 1013.3 0.0
29/10:00am 22.8 18.7 6.1 34 8.5 SW 17 24 9 13 1013.6 1013.6 0.0
29/09:30am 22.7 18.1 6.5 35 8.3 SSW 20 32 11 17 1013.5 1013.5 0.0
29/09:00am 21.2 16.8 6.7 39 7.4 S 19 24 10 13 1013.7 1013.7 0.0
29/08:30am 20.4 16.1 7.1 42 6.8 S 19 24 10 13 1013.8 1013.8 0.0
29/08:00am 18.9 15.7 7.0 46 6.0 SSW 13 17 7 9 1013.8 1013.8 0.0
29/07:30am 17.2 15.4 7.8 54 4.8 SW 7 11 4 6 1013.9 1013.9 0.0
29/07:00am 15.0 12.5 8.3 64 3.4 SW 11 13 6 7 1013.3 1013.3 0.0
29/06:30am 13.8 10.9 8.0 68 2.9 SSW 13 15 7 8 1012.9 1012.9 0.0
29/06:00am 13.8 11.8 8.6 71 2.6 SSW 9 13 5 7 1012.4 1012.4 0.0
29/05:30am 14.0 11.8 9.2 73 2.4 WSW 11 11 6 6 1012.3 1012.3 0.0
29/05:00am 14.4 11.9 9.6 73 2.5 WSW 13 15 7 8 1011.7 1011.7 0.0
29/04:30am 15.3 13.1 10.7 74 2.4 WSW 13 15 7 8 1011.4 1011.4 0.0
29/04:00am 15.3 13.0 11.7 79 1.9 WSW 15 17 8 9 1011.2 1011.2 0.0
29/03:30am 15.3 12.7 12.1 81 1.7 WSW 17 19 9 10 1011.2 1011.2 0.0
29/03:00am 15.7 14.0 12.3 80 1.9 SW 13 15 7 8 1011.1 1011.1 0.0
29/02:30am 17.6 15.7 13.1 75 2.5 WSW 15 19 8 10 1011.4 1011.4 0.0
29/02:00am 18.5 16.0 13.6 73 2.8 WSW 19 22 10 12 1011.5 1011.5 0.0
29/01:30am 18.9 17.4 14.2 74 2.7 WSW 15 20 8 11 1011.3 1011.3 0.0
29/01:00am 19.1 17.9 15.0 77 2.4 WSW 15 19 8 10 1011.3 1011.3 0.0
29/12:30am 19.9 18.0 15.1 74 2.8 WSW 19 20 10 11 1011.7 1011.7 0.0
29/12:00am 20.4 18.6 15.4 73 3.0 WSW 19 22 10 12 1012.0 1012.0 0.0
 
Date/Time
WST
Temp
°C
App
Temp
°C
Dew
Point
°C
Rel
Hum
%
Delta-T
°C
Wind Press
QNH
hPa
Press
MSL
hPa
Rain since
9am
mm
Dir  Spd
km/h
Gust
km/h
Spd
kts
Gust
kts
28/11:30pm 20.8 18.9 15.8 73 3.0 WSW 20 28 11 15 1012.2 1012.2 0.0
28/11:00pm 21.1 19.6 16.3 74 2.9 WSW 19 24 10 13 1012.0 1012.0 0.0
28/10:30pm 21.4 19.4 16.4 73 3.0 WSW 22 28 12 15 1012.2 1012.2 0.0
28/10:00pm 21.4 19.5 16.8 75 2.8 W 22 26 12 14 1012.3 1012.3 0.0
28/09:30pm 21.5 19.3 16.9 75 2.8 WSW 24 30 13 16 1012.5 1012.5 0.0
28/09:00pm 21.7 20.0 17.3 76 2.7 W 22 28 12 15 1012.4 1012.4 0.0
28/08:30pm 21.6 19.4 17.0 75 2.8 W 24 30 13 16 1012.1 1012.1 0.0
28/08:00pm 21.6 18.9 16.6 73 3.0 W 26 33 14 18 1012.1 1012.1 0.0
28/07:30pm 21.5 18.9 16.9 75 2.8 W 26 33 14 18 1011.6 1011.6 0.0
28/07:00pm 21.4 19.7 17.2 77 2.6 WNW 22 30 12 16 1011.3 1011.3 0.0
28/06:30pm 22.1 19.7 16.4 70 3.5 WNW 24 30 13 16 1010.4 1010.4 0.0
28/06:00pm 22.4 20.4 16.4 69 3.6 W 22 28 12 15 1011.1 1011.1 0.0
28/05:30pm 22.5 20.9 16.5 69 3.7 WNW 20 26 11 14 1011.0 1011.0 0.0
28/05:00pm 22.6 20.8 15.9 66 4.0 WNW 20 28 11 15 1011.1 1011.1 0.0
28/04:30pm 23.2 20.9 15.8 63 4.5 WNW 22 28 12 15 1010.8 1010.8 0.0
28/04:00pm 23.0 20.2 15.3 62 4.6 WNW 24 28 13 15 1010.8 1010.8 0.0
28/03:30pm 23.5 21.0 16.1 63 4.5 WNW 24 30 13 16 1010.9 1010.9 0.0
28/03:00pm 23.4 20.7 15.5 61 4.7 WNW 24 32 13 17 1010.6 1010.6 0.0
28/02:30pm 23.3 21.5 16.1 64 4.4 WNW 20 26 11 14 1010.6 1010.6 0.0
28/02:00pm 23.2 21.2 16.5 66 4.1 WNW 22 32 12 17 1011.1 1011.1 0.0
28/01:30pm 23.5 22.2 16.8 66 4.1 WNW 19 22 10 12 1011.5 1011.5 0.0
28/01:00pm 23.7 22.6 17.2 67 4.0 W 19 24 10 13 1011.5 1011.5 0.0
28/12:30pm 23.3 22.1 17.1 68 3.8 W 19 22 10 12 1012.0 1012.0 0.0
28/12:00pm 23.1 22.5 17.6 71 3.4 W 17 19 9 10 1012.4 1012.4 0.0
28/11:30am 22.8 22.2 17.5 72 3.3 WSW 17 22 9 12 1012.7 1012.7 0.0
28/11:00am 23.0 22.5 17.9 73 3.2 WSW 17 24 9 13 1013.1 1013.1 0.0
28/10:30am 22.9 22.0 17.8 73 3.2 WSW 19 24 10 13 1013.6 1013.6 0.0
28/10:00am 23.1 22.8 18.2 74 3.1 SW 17 24 9 13 1013.6 1013.6 0.0
28/09:30am 22.4 21.8 18.8 80 2.3 SW 20 26 11 14 1013.9 1013.9 0.0
28/09:00am 22.1 22.1 20.2 89 1.2 SW 20 26 11 14 1013.7 1013.7 0.8
28/08:30am 21.3 22.8 20.5 95 0.5 SW 13 19 7 10 1013.1 1013.1 0.8
28/08:00am 21.2 22.3 20.5 96 0.5 WSW 15 20 8 11 1012.9 1012.9 0.8
28/07:30am 20.9 23.3 20.9 100 0.0 SW 9 11 5 6 1012.5 1012.5 0.8
28/07:00am 20.4 22.6 20.4 100 0.0 WSW 9 11 5 6 1012.3 1012.3 0.8
28/06:30am 20.4 21.4 20.2 99 0.1 SW 15 17 8 9 1011.9 1011.9 0.6
28/06:00am 20.7 21.3 20.2 97 0.3 SW 17 20 9 11 1011.9 1011.9 0.6
28/05:30am 21.0 21.2 20.5 97 0.3 WSW 20 24 11 13 1011.6 1011.6 0.6
28/05:03am 21.5 22.3 20.7 95 0.5 W 17 24 9 13 1011.2 1011.2 0.2
28/05:02am 21.5 21.9 20.7 95 0.5 W 19 24 10 13 1011.2 1011.2 0.2
28/05:00am 21.5 22.0 20.8 96 0.5 W 19 24 10 13 1011.3 1011.3 0.2
28/04:44am 21.4 21.3 20.7 96 0.5 WSW 22 30 12 16 1011.4 1011.4 0.2
28/04:43am 21.4 21.3 20.7 96 0.5 WSW 22 30 12 16 1011.4 1011.4 0.2
28/04:30am 21.9 22.3 20.9 94 0.7 WSW 20 26 11 14 1011.5 1011.5 0.0
28/04:00am 22.4 23.1 21.2 93 0.8 W 19 24 10 13 1011.2 1011.2 0.0
28/03:30am 22.5 22.9 20.6 89 1.2 W 19 22 10 12 1011.3 1011.3 0.0
28/03:00am 22.6 21.9 20.3 87 1.5 W 24 30 13 16 1011.3 1011.3 0.0
28/02:30am 23.2 23.3 20.0 82 2.1 W 19 22 10 12 1011.4 1011.4 0.0
28/02:00am 23.2 23.9 20.5 85 1.8 W 17 20 9 11 1011.6 1011.6 0.0
28/01:30am 23.3 25.2 20.6 85 1.8 WNW 11 13 6 7 1011.7 1011.7 0.0
28/01:00am 23.2 25.1 20.5 85 1.8 W 11 13 6 7 1012.0 1012.0 0.0
28/12:30am 23.3 25.0 20.1 82 2.1 W 11 15 6 8 1012.4 1012.4 0.0
28/12:00am 23.3 24.9 19.9 81 2.2 WSW 11 15 6 8 1012.3 1012.3 0.0
 
Date/Time
WST
Temp
°C
App
Temp
°C
Dew
Point
°C
Rel
Hum
%
Delta-T
°C
Wind Press
QNH
hPa
Press
MSL
hPa
Rain since
9am
mm
Dir  Spd
km/h
Gust
km/h
Spd
kts
Gust
kts
27/11:30pm 23.6 23.9 19.5 78 2.6 W 17 20 9 11 1012.7 1012.7 0.0
27/11:00pm 23.5 23.4 18.8 75 3.0 WNW 17 20 9 11 1012.7 1012.7 0.0
27/10:30pm 23.0 24.1 19.6 81 2.2 WNW 13 17 7 9 1012.7 1012.7 0.0
27/10:00pm 22.7 23.9 19.9 84 1.8 NW 13 19 7 10 1012.7 1012.7 0.0
27/09:30pm 22.8 23.5 19.6 82 2.0 WNW 15 20 8 11 1013.0 1013.0 0.0
27/09:00pm 23.0 23.2 19.4 80 2.3 WNW 17 20 9 11 1012.8 1012.8 0.0
27/08:30pm 23.1 22.8 19.5 80 2.3 WNW 20 26 11 14 1012.6 1012.6 0.0
27/08:00pm 23.1 23.1 19.7 81 2.2 WNW 19 26 10 14 1012.6 1012.6 0.0
27/07:30pm 23.3 22.9 18.8 76 2.8 WNW 19 24 10 13 1012.2 1012.2 0.0
27/07:00pm 23.5 22.4 18.6 74 3.1 WNW 22 28 12 15 1012.0 1012.0 0.0
27/06:30pm 23.5 22.6 18.2 72 3.3 WNW 20 28 11 15 1011.6 1011.6 0.0
27/06:00pm 23.8 23.2 18.4 72 3.4 WNW 19 24 10 13 1011.4 1011.4 0.0
27/05:30pm 25.3 22.6 14.7 51 6.3 W 22 26 12 14 1011.2 1011.2 0.0
27/05:00pm 25.7 23.3 15.4 53 6.2 W 22 30 12 16 1011.1 1011.1 0.0
27/04:30pm 26.6 23.3 15.0 49 7.0 W 26 30 14 16 1011.1 1011.1 0.0
27/04:00pm 26.8 23.2 13.2 43 8.0 W 24 30 13 16 1011.0 1011.0 0.0
27/03:30pm 27.2 22.8 12.8 41 8.4 W 28 32 15 17 1011.0 1011.0 0.0
27/03:00pm 27.1 24.0 14.5 46 7.6 W 24 32 13 17 1011.0 1011.0 0.0
27/02:30pm 26.4 24.3 18.0 60 5.3 W 26 32 14 17 1011.2 1011.2 0.0
27/02:00pm 26.3 25.4 18.2 61 5.1 WNW 20 26 11 14 1011.6 1011.6 0.0
27/01:30pm 25.9 25.7 19.3 67 4.2 NW 19 26 10 14 1012.0 1012.0 0.0
27/01:00pm 26.2 27.1 20.1 69 4.0 NNE 15 24 8 13 1012.3 1012.3 0.0
27/12:30pm 26.1 26.2 20.4 71 3.7 NE 20 24 11 13 1012.8 1012.8 0.0
27/12:00pm 25.3 24.8 19.2 69 3.9 NE 20 26 11 14 1013.3 1013.3 0.0
27/11:30am 26.9 28.3 19.5 64 4.8 NNW 11 20 6 11 1013.7 1013.7 0.0
27/11:00am 25.6 26.1 19.3 68 4.0 NE 15 20 8 11 1013.9 1013.9 0.0
27/10:30am 24.9 24.8 18.8 69 3.9 NE 17 20 9 11 1014.2 1014.2 0.0
27/10:00am 24.5 25.4 18.4 69 3.9 NE 11 17 6 9 1014.7 1014.7 0.0
27/09:30am 23.5 25.0 17.7 70 3.6 N 6 11 3 6 1014.9 1014.9 0.0
27/09:00am 22.4 23.5 16.7 70 3.5 NW 6 7 3 4 1014.7 1014.7 0.0
27/08:30am 21.2 21.8 16.8 76 2.7 SW 9 11 5 6 1014.4 1014.4 0.0
27/08:00am 19.0 20.2 15.9 82 1.8 SW 4 7 2 4 1014.1 1014.1 0.0
27/07:30am 16.6 16.9 15.0 90 0.9 SW 7 9 4 5 1014.1 1014.1 0.0
27/07:00am 13.6 12.0 12.8 95 0.4 SSE 13 15 7 8 1013.8 1013.8 0.0
27/06:30am 13.1 12.6 12.5 96 0.3 S 7 9 4 5 1013.5 1013.5 0.0
27/06:00am 13.2 11.9 12.4 95 0.4 SSE 11 13 6 7 1013.4 1013.4 0.0
27/05:30am 13.4 12.1 12.6 95 0.4 S 11 13 6 7 1013.2 1013.2 0.0
27/05:00am 13.3 12.0 12.4 94 0.5 S 11 13 6 7 1012.9 1012.9 0.0
27/04:30am 13.3 11.6 12.4 94 0.5 S 13 15 7 8 1012.5 1012.5 0.0
27/04:00am 13.1 11.6 12.0 93 0.6 S 11 11 6 6 1012.3 1012.3 0.0

Other Formats:

Comma delimited format used in spreadsheet applications
http://www.bom.gov.au/fwo/IDW60801/IDW60801.95307.axf

JavaScript Object Notation format (JSON) in row-major order
http://www.bom.gov.au/fwo/IDW60801/IDW60801.95307.json